createdAt,value
2019-03-03T00:01:30.724Z,-3.32
2019-03-03T00:03:38.420Z,-3.31
2019-03-03T00:05:46.130Z,-3.32
2019-03-03T00:07:53.992Z,-3.35
2019-03-03T00:10:01.775Z,-3.35
2019-03-03T00:12:09.659Z,-3.33
2019-03-03T00:14:17.175Z,-3.34
2019-03-03T00:16:24.929Z,-3.33
2019-03-03T00:18:32.618Z,-3.37
2019-03-03T00:20:40.423Z,-3.39
2019-03-03T00:22:48.238Z,-3.39
2019-03-03T00:24:56.042Z,-3.40
2019-03-03T00:27:03.702Z,-3.35
2019-03-03T00:29:11.444Z,-3.44
2019-03-03T00:31:31.509Z,-3.15
2019-03-03T00:33:39.294Z,-3.26
2019-03-03T00:35:47.045Z,-3.27
2019-03-03T00:38:05.785Z,-3.18
2019-03-03T00:40:26.703Z,-3.12
2019-03-03T00:43:05.014Z,-3.13
2019-03-03T00:45:30.672Z,-3.13
2019-03-03T00:48:04.290Z,-3.10
2019-03-03T00:50:21.405Z,-3.02
2019-03-03T00:52:45.583Z,-3.21
2019-03-03T00:55:08.645Z,-3.25
2019-03-03T00:57:34.016Z,-3.23
2019-03-03T01:00:18.665Z,-3.19
2019-03-03T01:02:35.296Z,-3.13
2019-03-03T01:04:59.995Z,-2.92
2019-03-03T01:07:29.661Z,-2.79
2019-03-03T01:09:56.163Z,-2.82
2019-03-03T01:12:14.090Z,-2.72
2019-03-03T01:14:46.566Z,-2.74
2019-03-03T01:17:16.000Z,-2.66
2019-03-03T01:19:30.252Z,-2.67
2019-03-03T01:21:55.461Z,-2.65
2019-03-03T01:24:17.802Z,-2.61
2019-03-03T01:26:25.370Z,-2.60
2019-03-03T01:28:33.150Z,-2.58
2019-03-03T01:30:41.026Z,-2.50
2019-03-03T01:32:49.211Z,-2.47
2019-03-03T01:34:56.942Z,-2.41
2019-03-03T01:37:04.810Z,-2.36
2019-03-03T01:39:12.985Z,-2.23
2019-03-03T01:41:20.659Z,-2.21
2019-03-03T01:43:28.462Z,-2.14
2019-03-03T01:45:36.165Z,-2.14
2019-03-03T01:47:44.110Z,-2.03
2019-03-03T01:49:51.832Z,-1.99
2019-03-03T01:51:59.446Z,-1.96
2019-03-03T01:54:07.136Z,-1.96
2019-03-03T01:56:14.846Z,-1.91
2019-03-03T01:58:22.697Z,-1.89
2019-03-03T02:00:30.408Z,-1.82
2019-03-03T02:02:39.429Z,-1.82
2019-03-03T02:04:47.102Z,-1.79
2019-03-03T02:06:54.712Z,-1.76
2019-03-03T02:09:02.225Z,-1.70
2019-03-03T02:11:10.104Z,-1.70
2019-03-03T02:13:17.798Z,-1.62
2019-03-03T02:15:25.693Z,-1.60
2019-03-03T02:17:33.475Z,-1.60
2019-03-03T02:19:41.194Z,-1.59
2019-03-03T02:21:49.081Z,-1.54
2019-03-03T02:23:56.822Z,-1.51
2019-03-03T02:26:04.458Z,-1.43
2019-03-03T02:28:12.393Z,-1.41
2019-03-03T02:30:21.697Z,-1.36
2019-03-03T02:32:29.629Z,-1.33
2019-03-03T02:34:37.461Z,-1.34
2019-03-03T02:36:45.256Z,-1.27
2019-03-03T02:38:53.004Z,-1.23
2019-03-03T02:41:00.622Z,-1.25
2019-03-03T02:43:08.340Z,-1.26
2019-03-03T02:45:16.889Z,-1.32
2019-03-03T02:47:24.689Z,-1.30
2019-03-03T02:49:32.573Z,-1.20
2019-03-03T02:51:40.373Z,-1.13
2019-03-03T02:53:48.117Z,-1.07
2019-03-03T02:55:56.001Z,-1.08
2019-03-03T02:58:03.612Z,-1.04
2019-03-03T03:00:19.576Z,-1.03
2019-03-03T03:02:45.226Z,-1.03
2019-03-03T03:04:52.971Z,-1.09
2019-03-03T03:07:25.705Z,-1.01
2019-03-03T03:09:40.636Z,-1.00
2019-03-03T03:11:59.063Z,-0.97
2019-03-03T03:14:25.622Z,-0.99
2019-03-03T03:16:45.604Z,-1.00
2019-03-03T03:19:17.818Z,-1.00
2019-03-03T03:21:38.882Z,-1.03
2019-03-03T03:24:17.426Z,-0.96
2019-03-03T03:26:59.246Z,-0.89
2019-03-03T03:29:44.238Z,-0.84
2019-03-03T03:32:13.529Z,-0.88
2019-03-03T03:34:46.146Z,-0.76
2019-03-03T03:37:10.918Z,-0.75
2019-03-03T03:39:46.507Z,-0.68
2019-03-03T03:42:09.513Z,-0.70
2019-03-03T03:44:45.042Z,-0.65
2019-03-03T03:47:23.872Z,-0.67
2019-03-03T03:49:53.408Z,-0.69
2019-03-03T03:52:18.484Z,-0.66
2019-03-03T03:54:45.175Z,-0.69
2019-03-03T03:57:23.487Z,-0.67
2019-03-03T03:59:38.667Z,-0.61
2019-03-03T04:02:08.213Z,-0.63
2019-03-03T04:04:31.252Z,-0.58
2019-03-03T04:06:50.682Z,-0.54
2019-03-03T04:09:15.847Z,-0.53
2019-03-03T04:11:45.516Z,-0.49
2019-03-03T04:14:10.880Z,-0.45
2019-03-03T04:16:46.573Z,-0.44
2019-03-03T04:19:01.695Z,-0.43
2019-03-03T04:21:28.282Z,-0.40
2019-03-03T04:23:53.987Z,-0.39
2019-03-03T04:26:18.626Z,-0.38
2019-03-03T04:28:45.793Z,-0.38
2019-03-03T04:31:02.198Z,-0.35
2019-03-03T04:33:31.389Z,-0.33
2019-03-03T04:35:58.779Z,-0.28
2019-03-03T04:38:25.243Z,-0.29
2019-03-03T04:40:48.701Z,-0.26
2019-03-03T04:43:01.727Z,-0.26
2019-03-03T04:45:17.231Z,-0.23
2019-03-03T04:47:39.916Z,-0.25
2019-03-03T04:50:12.509Z,-0.26
2019-03-03T04:52:43.914Z,-0.22
2019-03-03T04:55:09.241Z,-0.22
2019-03-03T04:57:35.698Z,-0.20
2019-03-03T05:00:05.175Z,-0.19
2019-03-03T05:02:37.705Z,-0.18
2019-03-03T05:05:02.438Z,-0.16
2019-03-03T05:07:27.836Z,-0.13
2019-03-03T05:10:06.283Z,-0.11
2019-03-03T05:12:43.610Z,-0.10
2019-03-03T05:14:52.312Z,-0.10
2019-03-03T05:17:05.985Z,-0.08
2019-03-03T05:19:32.467Z,-0.12
2019-03-03T05:21:40.209Z,-0.09
2019-03-03T05:23:48.120Z,-0.09
2019-03-03T05:25:55.925Z,-0.08
2019-03-03T05:28:03.674Z,-0.05
2019-03-03T05:30:11.839Z,-0.03
2019-03-03T05:32:19.388Z,0.01
2019-03-03T05:34:27.059Z,-0.01
2019-03-03T05:36:34.790Z,0.02
2019-03-03T05:38:42.387Z,0.03
2019-03-03T05:40:50.008Z,0.07
2019-03-03T05:42:57.485Z,0.09
2019-03-03T05:45:05.350Z,0.09
2019-03-03T05:47:13.039Z,0.09
2019-03-03T05:49:20.812Z,0.12
2019-03-03T05:51:28.472Z,0.18
2019-03-03T05:53:36.256Z,0.19
2019-03-03T05:55:43.917Z,0.22
2019-03-03T05:57:51.574Z,0.27
2019-03-03T05:59:59.307Z,0.27
2019-03-03T06:02:07.088Z,0.31
2019-03-03T06:04:14.950Z,0.33
2019-03-03T06:06:22.628Z,0.35
2019-03-03T06:08:30.494Z,0.37
2019-03-03T06:10:38.051Z,0.39
2019-03-03T06:12:45.713Z,0.40
2019-03-03T06:14:53.451Z,0.43
2019-03-03T06:17:01.437Z,0.48
2019-03-03T06:19:08.976Z,0.50
2019-03-03T06:21:16.781Z,0.48
2019-03-03T06:23:24.556Z,0.51
2019-03-03T06:25:32.327Z,0.55
2019-03-03T06:27:39.934Z,0.60
2019-03-03T06:29:47.634Z,0.63
2019-03-03T06:31:55.570Z,0.68
2019-03-03T06:34:03.178Z,0.69
2019-03-03T06:36:10.850Z,0.70
2019-03-03T06:38:18.756Z,0.71
2019-03-03T06:40:26.484Z,0.76
2019-03-03T06:42:34.203Z,0.77
2019-03-03T06:44:41.860Z,0.79
2019-03-03T06:46:49.531Z,0.80
2019-03-03T06:48:57.310Z,0.84
2019-03-03T06:51:05.091Z,0.89
2019-03-03T06:53:12.839Z,0.90
2019-03-03T06:55:20.520Z,0.89
2019-03-03T06:57:28.200Z,0.93
2019-03-03T06:59:35.775Z,0.96
2019-03-03T07:01:43.501Z,0.99
2019-03-03T07:03:51.319Z,1.07
2019-03-03T07:05:59.032Z,1.10
2019-03-03T07:08:07.202Z,1.10
2019-03-03T07:10:16.007Z,1.14
2019-03-03T07:12:23.707Z,1.18
2019-03-03T07:14:31.421Z,1.23
2019-03-03T07:16:39.172Z,1.30
2019-03-03T07:18:46.901Z,1.35
2019-03-03T07:20:54.527Z,1.41
2019-03-03T07:23:02.448Z,1.52
2019-03-03T07:25:12.370Z,1.64
2019-03-03T07:27:20.102Z,1.79
2019-03-03T07:29:27.979Z,1.85
2019-03-03T07:31:35.822Z,1.93
2019-03-03T07:33:46.976Z,2.00
2019-03-03T07:35:54.665Z,2.09
2019-03-03T07:38:02.306Z,2.26
2019-03-03T07:40:10.212Z,2.34
2019-03-03T07:42:18.114Z,2.45
2019-03-03T07:44:25.740Z,2.52
2019-03-03T07:46:33.718Z,2.59
2019-03-03T07:48:41.422Z,2.68
2019-03-03T07:50:49.141Z,2.70
2019-03-03T07:52:56.934Z,2.79
2019-03-03T07:55:05.211Z,2.86
2019-03-03T07:57:13.140Z,2.99
2019-03-03T07:59:20.998Z,3.18
2019-03-03T08:01:28.761Z,3.30
2019-03-03T08:03:36.692Z,3.37
2019-03-03T08:05:44.684Z,3.41
2019-03-03T08:07:52.510Z,3.47
2019-03-03T08:10:00.257Z,3.57
2019-03-03T08:12:08.133Z,3.66
2019-03-03T08:14:15.909Z,3.66
2019-03-03T08:16:23.718Z,4.03
2019-03-03T08:18:31.538Z,4.02
2019-03-03T08:20:39.144Z,4.07
2019-03-03T08:22:46.944Z,4.17
2019-03-03T08:24:54.717Z,4.26
2019-03-03T08:27:02.447Z,4.16
2019-03-03T08:29:10.124Z,4.20
2019-03-03T08:31:17.746Z,4.18
2019-03-03T08:33:25.379Z,4.13
2019-03-03T08:35:33.407Z,4.20
2019-03-03T08:37:41.587Z,4.15
2019-03-03T08:39:49.359Z,4.09
2019-03-03T08:42:03.332Z,4.17
2019-03-03T08:44:15.044Z,4.13
2019-03-03T08:46:50.469Z,4.16
2019-03-03T08:49:15.583Z,4.19
2019-03-03T08:51:45.035Z,4.28
2019-03-03T08:54:02.219Z,4.44
2019-03-03T08:56:26.346Z,4.48
2019-03-03T08:59:08.860Z,4.62
2019-03-03T09:01:44.512Z,4.67
2019-03-03T09:04:09.556Z,4.74
2019-03-03T09:06:39.327Z,4.78
2019-03-03T09:09:11.981Z,4.93
2019-03-03T09:11:28.072Z,4.91
2019-03-03T09:13:48.165Z,4.95
2019-03-03T09:16:12.182Z,5.00
2019-03-03T09:18:37.391Z,5.05
2019-03-03T09:21:14.932Z,5.14
2019-03-03T09:23:40.555Z,5.17
2019-03-03T09:26:16.075Z,5.22
2019-03-03T09:28:41.107Z,5.40
2019-03-03T09:31:26.064Z,5.47
2019-03-03T09:33:52.766Z,5.63
2019-03-03T09:36:16.963Z,5.69
2019-03-03T09:38:40.869Z,5.87
2019-03-03T09:41:10.598Z,5.91
2019-03-03T09:43:36.047Z,5.99
2019-03-03T09:46:08.973Z,5.88
2019-03-03T09:48:41.712Z,5.85
2019-03-03T09:51:05.301Z,6.04
2019-03-03T09:53:31.789Z,6.00
2019-03-03T09:55:57.539Z,6.10
2019-03-03T09:58:24.502Z,6.20
2019-03-03T10:00:54.334Z,6.34
2019-03-03T10:03:15.881Z,6.51
2019-03-03T10:05:48.532Z,6.55
2019-03-03T10:08:10.654Z,6.49
2019-03-03T10:10:52.625Z,6.59
2019-03-03T10:13:22.581Z,6.68
2019-03-03T10:15:37.972Z,6.79
2019-03-03T10:18:03.244Z,6.72
2019-03-03T10:20:39.634Z,6.78
2019-03-03T10:22:58.560Z,6.68
2019-03-03T10:25:28.101Z,6.58
2019-03-03T10:27:54.635Z,6.51
2019-03-03T10:30:19.756Z,6.50
2019-03-03T10:32:46.263Z,6.45
2019-03-03T10:35:21.625Z,6.50
2019-03-03T10:37:51.355Z,6.46
2019-03-03T10:40:24.253Z,6.48
2019-03-03T10:43:02.844Z,6.51
2019-03-03T10:45:40.319Z,6.48
2019-03-03T10:48:07.002Z,6.47
2019-03-03T10:50:38.290Z,6.48
2019-03-03T10:53:11.006Z,6.43
2019-03-03T10:55:36.685Z,6.41
2019-03-03T10:58:06.496Z,6.41
2019-03-03T11:00:37.456Z,6.37
2019-03-03T11:03:07.234Z,6.37
2019-03-03T11:05:33.554Z,6.41
2019-03-03T11:08:12.461Z,6.39
2019-03-03T11:10:28.578Z,6.35
2019-03-03T11:13:05.121Z,6.33
2019-03-03T11:15:35.799Z,6.33
2019-03-03T11:18:14.523Z,6.38
2019-03-03T11:20:47.360Z,6.38
2019-03-03T11:23:19.931Z,6.43
2019-03-03T11:25:49.529Z,6.50
2019-03-03T11:28:23.387Z,6.47
2019-03-03T11:30:37.387Z,6.51
2019-03-03T11:33:21.506Z,6.55
2019-03-03T11:35:46.017Z,6.55
2019-03-03T11:38:15.372Z,6.52
2019-03-03T11:40:35.075Z,6.51
2019-03-03T11:42:54.135Z,6.47
2019-03-03T11:45:32.804Z,6.47
2019-03-03T11:48:03.826Z,6.46
2019-03-03T11:50:22.023Z,6.43
2019-03-03T11:52:57.625Z,6.39
2019-03-03T11:55:13.601Z,6.41
2019-03-03T11:57:30.911Z,6.36
2019-03-03T11:59:46.223Z,6.37
2019-03-03T12:02:12.630Z,6.32
2019-03-03T12:04:48.610Z,6.32
2019-03-03T12:07:18.153Z,6.34
2019-03-03T12:10:00.308Z,6.32
2019-03-03T12:12:18.061Z,6.26
2019-03-03T12:14:42.469Z,6.28
2019-03-03T12:17:03.152Z,6.26
2019-03-03T12:19:23.350Z,6.27
2019-03-03T12:21:55.629Z,6.24
2019-03-03T12:24:21.980Z,6.24
2019-03-03T12:26:54.768Z,6.26
2019-03-03T12:29:20.158Z,6.30
2019-03-03T12:31:46.758Z,6.29
2019-03-03T12:34:28.518Z,6.36
2019-03-03T12:37:00.934Z,6.42
2019-03-03T12:39:31.795Z,6.50
2019-03-03T12:42:03.765Z,6.59
2019-03-03T12:44:26.316Z,6.71
2019-03-03T12:47:05.205Z,6.78
2019-03-03T12:49:35.143Z,6.79
2019-03-03T12:52:00.785Z,6.78
2019-03-03T12:54:27.590Z,6.81
2019-03-03T12:56:48.179Z,6.82
2019-03-03T12:59:14.075Z,6.82
2019-03-03T13:01:56.907Z,6.80
2019-03-03T13:04:29.183Z,6.78
2019-03-03T13:07:02.439Z,6.82
2019-03-03T13:09:35.828Z,6.83
2019-03-03T13:12:03.027Z,6.86
2019-03-03T13:14:32.872Z,6.88
2019-03-03T13:17:11.788Z,6.90
2019-03-03T13:19:38.593Z,6.93
2019-03-03T13:22:05.725Z,6.99
2019-03-03T13:24:30.834Z,6.97
2019-03-03T13:26:46.303Z,6.99
2019-03-03T13:29:25.379Z,7.03
2019-03-03T13:31:44.145Z,7.03
2019-03-03T13:34:11.087Z,7.09
2019-03-03T13:36:34.724Z,7.12
2019-03-03T13:39:08.493Z,7.14
2019-03-03T13:41:38.647Z,7.20
2019-03-03T13:43:47.587Z,7.23
2019-03-03T13:45:56.238Z,7.26
2019-03-03T13:48:04.846Z,7.28
2019-03-03T13:50:16.248Z,7.31
2019-03-03T13:52:24.373Z,7.28
2019-03-03T13:54:33.141Z,7.32
2019-03-03T13:56:41.492Z,7.34
2019-03-03T13:58:49.878Z,7.37
2019-03-03T14:00:58.464Z,7.42
2019-03-03T14:03:07.022Z,7.41
2019-03-03T14:05:16.910Z,7.44
2019-03-03T14:07:24.994Z,7.40
2019-03-03T14:09:33.296Z,7.44
2019-03-03T14:11:41.508Z,7.41
2019-03-03T14:13:49.879Z,7.44
2019-03-03T14:15:58.003Z,7.43
2019-03-03T14:18:06.087Z,7.46
2019-03-03T14:20:20.707Z,7.49
2019-03-03T14:22:28.816Z,7.46
2019-03-03T14:24:36.860Z,7.50
2019-03-03T14:26:44.739Z,7.48
2019-03-03T14:28:52.694Z,7.55
2019-03-03T14:31:00.640Z,7.57
2019-03-03T14:33:08.676Z,7.59
2019-03-03T14:35:17.408Z,7.59
2019-03-03T14:37:25.147Z,7.57
2019-03-03T14:39:32.957Z,7.60
2019-03-03T14:41:41.204Z,7.60
2019-03-03T14:43:49.182Z,7.66
2019-03-03T14:45:58.040Z,7.71
2019-03-03T14:48:06.173Z,7.67
2019-03-03T14:50:16.289Z,7.70
2019-03-03T14:52:23.984Z,7.68
2019-03-03T14:54:31.903Z,7.65
2019-03-03T14:56:39.741Z,7.68
2019-03-03T14:58:47.513Z,7.70
2019-03-03T15:00:55.849Z,7.74
2019-03-03T15:03:06.181Z,7.72
2019-03-03T15:05:14.523Z,7.77
2019-03-03T15:07:22.561Z,7.75
2019-03-03T15:09:30.522Z,7.77
2019-03-03T15:11:38.362Z,7.73
2019-03-03T15:13:46.123Z,7.76
2019-03-03T15:15:54.210Z,7.79
2019-03-03T15:18:02.017Z,7.76
2019-03-03T15:20:10.287Z,7.79
2019-03-03T15:22:18.066Z,7.85
2019-03-03T15:24:25.977Z,7.86
2019-03-03T15:26:34.059Z,7.89
2019-03-03T15:28:42.287Z,7.93
2019-03-03T15:30:50.312Z,7.96
2019-03-03T15:32:58.273Z,7.99
2019-03-03T15:35:06.354Z,7.98
2019-03-03T15:37:17.877Z,7.97
2019-03-03T15:39:26.199Z,8.00
2019-03-03T15:41:34.000Z,8.01
2019-03-03T15:43:42.122Z,8.02
2019-03-03T15:45:49.777Z,8.05
2019-03-03T15:47:57.865Z,8.06
2019-03-03T15:50:06.114Z,8.08
2019-03-03T15:52:14.136Z,8.11
2019-03-03T15:54:22.070Z,8.16
2019-03-03T15:56:29.870Z,8.12
2019-03-03T15:58:38.040Z,8.19
2019-03-03T16:00:46.130Z,8.31
2019-03-03T16:02:54.298Z,8.32
2019-03-03T16:05:02.354Z,8.37
2019-03-03T16:07:10.186Z,8.38
2019-03-03T16:09:19.306Z,8.42
2019-03-03T16:11:27.244Z,8.52
2019-03-03T16:13:35.399Z,8.46
2019-03-03T16:15:43.471Z,8.51
2019-03-03T16:17:51.038Z,8.53
2019-03-03T16:19:58.805Z,8.60
2019-03-03T16:22:06.830Z,8.60
2019-03-03T16:24:15.629Z,8.65
2019-03-03T16:26:25.182Z,8.62
2019-03-03T16:28:33.324Z,8.70
2019-03-03T16:30:41.941Z,8.69
2019-03-03T16:32:49.970Z,8.69
2019-03-03T16:34:58.012Z,8.78
2019-03-03T16:37:05.792Z,8.71
2019-03-03T16:39:13.961Z,8.70
2019-03-03T16:41:21.888Z,8.70
2019-03-03T16:43:29.885Z,8.79
2019-03-03T16:45:37.894Z,8.82
2019-03-03T16:47:45.876Z,8.82
2019-03-03T16:49:54.127Z,8.78
2019-03-03T16:52:01.988Z,8.78
2019-03-03T16:54:10.215Z,8.81
2019-03-03T16:56:18.162Z,8.75
2019-03-03T16:58:26.560Z,8.77
2019-03-03T17:00:34.582Z,8.80
2019-03-03T17:02:42.274Z,8.83
2019-03-03T17:04:50.296Z,8.84
2019-03-03T17:06:57.962Z,8.84
2019-03-03T17:09:06.858Z,8.82
2019-03-03T17:11:15.999Z,8.86
2019-03-03T17:13:23.793Z,8.82
2019-03-03T17:15:32.148Z,8.80
2019-03-03T17:17:40.126Z,8.89
2019-03-03T17:19:48.271Z,8.88
2019-03-03T17:21:56.124Z,8.87
2019-03-03T17:24:03.983Z,8.88
2019-03-03T17:26:12.197Z,8.82
2019-03-03T17:28:20.276Z,8.88
2019-03-03T17:30:28.439Z,8.87
2019-03-03T17:32:36.494Z,8.91
2019-03-03T17:34:44.315Z,8.93
2019-03-03T17:36:52.545Z,8.89
2019-03-03T17:39:00.211Z,8.94
2019-03-03T17:41:08.051Z,8.99
2019-03-03T17:43:15.976Z,8.98
2019-03-03T17:45:24.795Z,8.88
2019-03-03T17:47:33.387Z,8.95
2019-03-03T17:49:41.600Z,8.95
2019-03-03T17:51:49.715Z,8.96
2019-03-03T17:53:57.999Z,9.00
2019-03-03T17:56:06.189Z,8.96
2019-03-03T17:58:14.470Z,8.91
2019-03-03T18:00:25.589Z,8.85
2019-03-03T18:02:34.089Z,8.84
2019-03-03T18:04:41.906Z,8.80
2019-03-03T18:06:50.484Z,8.76
2019-03-03T18:08:58.508Z,8.74
2019-03-03T18:11:06.780Z,8.67
2019-03-03T18:13:15.216Z,8.63
2019-03-03T18:15:24.270Z,8.59
2019-03-03T18:17:32.221Z,8.50
2019-03-03T18:19:40.327Z,8.50
2019-03-03T18:21:48.768Z,8.44
2019-03-03T18:23:57.231Z,8.37
2019-03-03T18:26:05.316Z,8.35
2019-03-03T18:28:13.890Z,8.30
2019-03-03T18:30:24.341Z,8.31
2019-03-03T18:32:32.715Z,8.26
2019-03-03T18:34:42.762Z,8.19
2019-03-03T18:36:52.067Z,8.19
2019-03-03T18:39:00.214Z,8.20
2019-03-03T18:41:08.645Z,8.22
2019-03-03T18:43:17.908Z,8.20
2019-03-03T18:45:27.474Z,8.19
2019-03-03T18:47:36.253Z,8.18
2019-03-03T18:49:45.308Z,8.17
2019-03-03T18:51:53.932Z,8.16
2019-03-03T18:54:02.404Z,8.15
2019-03-03T18:56:11.125Z,8.14
2019-03-03T18:58:19.102Z,8.09
2019-03-03T19:00:30.190Z,8.03
2019-03-03T19:02:39.991Z,8.09
2019-03-03T19:04:49.031Z,8.07
2019-03-03T19:06:59.404Z,8.07
2019-03-03T19:09:11.805Z,8.02
2019-03-03T19:11:20.182Z,8.08
2019-03-03T19:13:28.835Z,8.05
2019-03-03T19:15:39.423Z,8.02
2019-03-03T19:17:47.786Z,8.01
2019-03-03T19:19:55.382Z,8.01
2019-03-03T19:22:03.788Z,7.99
2019-03-03T19:24:12.725Z,7.98
2019-03-03T19:26:21.425Z,7.99
2019-03-03T19:28:30.215Z,7.97
2019-03-03T19:30:39.510Z,7.96
2019-03-03T19:32:50.330Z,7.96
2019-03-03T19:35:01.301Z,7.95
2019-03-03T19:37:11.907Z,7.91
2019-03-03T19:39:22.737Z,7.90
2019-03-03T19:41:32.693Z,7.90
2019-03-03T19:43:42.628Z,7.95
2019-03-03T19:45:50.995Z,7.96
2019-03-03T19:47:59.145Z,7.95
2019-03-03T19:50:08.484Z,7.95
2019-03-03T19:52:16.619Z,7.97
2019-03-03T19:54:24.350Z,7.92
2019-03-03T19:56:32.780Z,7.95
2019-03-03T19:58:40.645Z,7.97
2019-03-03T20:00:49.109Z,7.95
2019-03-03T20:02:57.361Z,7.96
2019-03-03T20:05:05.285Z,7.90
2019-03-03T20:07:13.122Z,7.93
2019-03-03T20:09:21.058Z,7.92
2019-03-03T20:11:28.952Z,7.93
2019-03-03T20:13:36.905Z,7.90
2019-03-03T20:15:44.647Z,7.93
2019-03-03T20:17:52.519Z,7.91
2019-03-03T20:20:00.314Z,7.92
2019-03-03T20:22:08.185Z,7.91
2019-03-03T20:24:16.022Z,7.87
2019-03-03T20:26:24.461Z,7.88
2019-03-03T20:28:32.532Z,7.89
2019-03-03T20:30:42.451Z,7.94
2019-03-03T20:32:51.001Z,7.92
2019-03-03T20:34:58.825Z,7.94
2019-03-03T20:37:07.173Z,7.88
2019-03-03T20:39:16.773Z,7.91
2019-03-03T20:41:25.296Z,7.92
2019-03-03T20:43:33.006Z,7.92
2019-03-03T20:45:40.910Z,7.92
2019-03-03T20:47:49.008Z,7.92
2019-03-03T20:49:57.080Z,7.91
2019-03-03T20:52:06.704Z,7.88
2019-03-03T20:54:14.653Z,7.89
2019-03-03T20:56:22.608Z,7.91
2019-03-03T20:58:30.806Z,7.91
2019-03-03T21:00:39.334Z,7.89
2019-03-03T21:02:47.263Z,7.91
2019-03-03T21:04:55.090Z,7.88
2019-03-03T21:07:03.239Z,7.88
2019-03-03T21:09:11.943Z,7.91
2019-03-03T21:11:19.865Z,7.89
2019-03-03T21:13:27.785Z,7.89
2019-03-03T21:15:35.728Z,7.91
2019-03-03T21:17:43.683Z,7.88
2019-03-03T21:19:51.833Z,7.89
2019-03-03T21:21:59.639Z,7.93
2019-03-03T21:24:07.372Z,7.91
2019-03-03T21:26:15.320Z,7.92
2019-03-03T21:28:23.216Z,7.93
2019-03-03T21:30:31.106Z,7.92
2019-03-03T21:32:39.356Z,7.91
2019-03-03T21:34:47.139Z,7.92
2019-03-03T21:36:55.112Z,7.95
2019-03-03T21:39:03.818Z,7.95
2019-03-03T21:41:12.116Z,7.94
2019-03-03T21:43:21.062Z,7.91
2019-03-03T21:45:29.425Z,7.92
2019-03-03T21:47:37.182Z,7.92
2019-03-03T21:49:45.106Z,7.87
2019-03-03T21:51:52.927Z,7.89
2019-03-03T21:54:00.766Z,7.90
2019-03-03T21:56:08.779Z,7.89
2019-03-03T21:58:16.698Z,7.85
2019-03-03T22:00:31.004Z,7.85
2019-03-03T22:02:38.862Z,7.87
2019-03-03T22:04:46.743Z,7.89
2019-03-03T22:06:54.579Z,7.89
2019-03-03T22:09:02.771Z,7.89
2019-03-03T22:11:10.685Z,7.90
2019-03-03T22:13:18.503Z,7.89
2019-03-03T22:15:26.402Z,7.88
2019-03-03T22:17:34.230Z,7.84
2019-03-03T22:19:42.495Z,7.83
2019-03-03T22:21:50.916Z,7.85
2019-03-03T22:23:58.717Z,7.82
2019-03-03T22:26:07.194Z,7.86
2019-03-03T22:28:14.962Z,7.83
2019-03-03T22:30:23.110Z,7.80
2019-03-03T22:32:30.896Z,7.81
2019-03-03T22:34:38.901Z,7.81
2019-03-03T22:36:47.209Z,7.80
2019-03-03T22:38:55.192Z,7.82
2019-03-03T22:41:02.967Z,7.78
2019-03-03T22:43:11.325Z,7.79
2019-03-03T22:45:19.851Z,7.81
2019-03-03T22:47:28.468Z,7.78
2019-03-03T22:49:36.239Z,7.78
2019-03-03T22:51:44.135Z,7.77
2019-03-03T22:53:51.891Z,7.76
2019-03-03T22:55:59.772Z,7.76
2019-03-03T22:58:07.539Z,7.76
2019-03-03T23:00:47.874Z,7.77
2019-03-03T23:02:56.234Z,7.76
2019-03-03T23:05:31.366Z,7.75
2019-03-03T23:08:14.029Z,7.74
2019-03-03T23:11:03.871Z,7.72
2019-03-03T23:13:56.949Z,7.70
2019-03-03T23:17:23.792Z,7.67
2019-03-03T23:20:29.395Z,7.72
2019-03-03T23:23:34.105Z,7.70
2019-03-03T23:25:55.145Z,7.67
2019-03-03T23:28:03.036Z,7.66
2019-03-03T23:30:10.833Z,7.67
2019-03-03T23:32:18.610Z,7.66
2019-03-03T23:34:26.818Z,7.65
2019-03-03T23:36:34.659Z,7.68
2019-03-03T23:38:42.420Z,7.68
2019-03-03T23:40:50.245Z,7.69
2019-03-03T23:42:57.949Z,7.67
2019-03-03T23:45:06.524Z,7.65
2019-03-03T23:47:14.180Z,7.67
2019-03-03T23:49:21.915Z,7.69
2019-03-03T23:51:29.611Z,7.69
2019-03-03T23:53:37.215Z,7.67
2019-03-03T23:55:44.904Z,7.65
2019-03-03T23:57:52.608Z,7.65
